createdAt,value
2019-03-08T00:01:16.493Z,1.33
2019-03-08T00:03:45.604Z,1.20
2019-03-08T00:06:14.700Z,2.40
2019-03-08T00:08:44.059Z,1.17
2019-03-08T00:11:13.152Z,1.60
2019-03-08T00:13:42.272Z,1.03
2019-03-08T00:16:11.377Z,3.10
2019-03-08T00:18:40.457Z,3.23
2019-03-08T00:21:09.556Z,2.80
2019-03-08T00:23:38.822Z,1.43
2019-03-08T00:26:07.894Z,3.50
2019-03-08T00:28:37.077Z,0.93
2019-03-08T00:31:06.463Z,1.63
2019-03-08T00:33:35.524Z,1.47
2019-03-08T00:36:04.701Z,1.10
2019-03-08T00:38:33.785Z,1.30
2019-03-08T00:41:02.897Z,3.33
2019-03-08T00:43:31.968Z,1.80
2019-03-08T00:46:01.041Z,2.33
2019-03-08T00:48:30.136Z,1.53
2019-03-08T00:50:59.247Z,2.43
2019-03-08T00:53:28.383Z,3.87
2019-03-08T00:55:57.493Z,2.07
2019-03-08T00:58:26.565Z,1.70
2019-03-08T01:00:55.695Z,1.70
2019-03-08T01:03:24.763Z,1.87
2019-03-08T01:05:54.049Z,2.50
2019-03-08T01:08:23.205Z,1.10
2019-03-08T01:10:52.507Z,1.47
2019-03-08T01:13:21.614Z,2.53
2019-03-08T01:15:50.717Z,3.57
2019-03-08T01:18:19.787Z,2.23
2019-03-08T01:20:49.074Z,2.30
2019-03-08T01:23:18.239Z,3.00
2019-03-08T01:25:47.357Z,1.70
2019-03-08T01:28:16.676Z,4.67
2019-03-08T01:30:46.056Z,2.13
2019-03-08T01:33:15.231Z,1.90
2019-03-08T01:35:44.328Z,3.13
2019-03-08T01:38:13.413Z,3.40
2019-03-08T01:40:42.509Z,3.53
2019-03-08T01:43:11.643Z,3.27
2019-03-08T01:45:40.711Z,3.53
2019-03-08T01:48:10.082Z,2.33
2019-03-08T01:50:39.258Z,3.40
2019-03-08T01:53:08.362Z,3.63
2019-03-08T01:55:37.417Z,4.63
2019-03-08T01:58:06.520Z,2.63
2019-03-08T02:00:35.706Z,3.40
2019-03-08T02:03:05.364Z,4.60
2019-03-08T02:05:34.436Z,6.33
2019-03-08T02:08:03.558Z,2.40
2019-03-08T02:10:32.646Z,3.67
2019-03-08T02:13:01.804Z,3.40
2019-03-08T02:15:30.887Z,3.03
2019-03-08T02:17:59.984Z,2.60
2019-03-08T02:20:29.036Z,4.97
2019-03-08T02:22:58.126Z,4.40
2019-03-08T02:25:27.194Z,3.23
2019-03-08T02:27:56.304Z,3.53
2019-03-08T02:30:25.662Z,2.93
2019-03-08T02:32:54.750Z,5.70
2019-03-08T02:35:23.832Z,3.60
2019-03-08T02:37:52.954Z,3.10
2019-03-08T02:40:32.807Z,3.50
2019-03-08T02:43:02.663Z,4.20
2019-03-08T02:45:31.872Z,3.53
2019-03-08T02:48:01.044Z,3.33
2019-03-08T02:50:30.110Z,1.93
2019-03-08T02:52:59.201Z,5.70
2019-03-08T02:55:28.276Z,3.13
2019-03-08T02:57:57.374Z,4.80
2019-03-08T03:00:30.604Z,4.13
2019-03-08T03:02:59.687Z,3.80
2019-03-08T03:05:28.781Z,4.80
2019-03-08T03:07:57.877Z,5.33
2019-03-08T03:10:26.941Z,6.27
2019-03-08T03:12:56.127Z,4.60
2019-03-08T03:15:25.188Z,3.90
2019-03-08T03:17:54.285Z,5.03
2019-03-08T03:20:23.375Z,6.27
2019-03-08T03:22:52.391Z,6.90
2019-03-08T03:25:21.471Z,5.97
2019-03-08T03:27:50.576Z,3.33
2019-03-08T03:30:19.952Z,4.17
2019-03-08T03:32:49.085Z,3.53
2019-03-08T03:35:18.221Z,4.33
2019-03-08T03:37:47.628Z,4.30
2019-03-08T03:40:17.046Z,2.90
2019-03-08T03:42:46.106Z,3.30
2019-03-08T03:45:15.414Z,5.07
2019-03-08T03:47:44.714Z,8.17
2019-03-08T03:50:14.127Z,6.63
2019-03-08T03:52:43.197Z,6.17
2019-03-08T03:55:12.502Z,8.30
2019-03-08T03:57:41.566Z,5.67
2019-03-08T04:00:11.898Z,4.80
2019-03-08T04:02:40.968Z,4.83
2019-03-08T04:05:10.540Z,4.97
2019-03-08T04:07:39.591Z,6.80
2019-03-08T04:10:09.750Z,5.50
2019-03-08T04:12:38.831Z,6.43
2019-03-08T04:15:09.733Z,5.57
2019-03-08T04:17:38.824Z,4.20
2019-03-08T04:20:09.613Z,3.67
2019-03-08T04:22:38.699Z,5.37
2019-03-08T04:25:07.906Z,4.40
2019-03-08T04:27:37.000Z,4.87
2019-03-08T04:30:06.326Z,5.27
2019-03-08T04:32:35.409Z,5.57
2019-03-08T04:35:04.679Z,5.17
2019-03-08T04:37:33.759Z,6.53
2019-03-08T04:40:02.815Z,6.40
2019-03-08T04:42:31.958Z,5.10
2019-03-08T04:45:01.010Z,5.47
2019-03-08T04:47:30.313Z,7.63
2019-03-08T04:49:59.401Z,9.33
2019-03-08T04:52:28.466Z,4.60
2019-03-08T04:54:57.498Z,4.50
2019-03-08T04:57:26.593Z,7.07
2019-03-08T04:59:55.651Z,9.67
2019-03-08T05:02:25.021Z,7.17
2019-03-08T05:04:54.160Z,4.87
2019-03-08T05:07:23.338Z,5.03
2019-03-08T05:09:52.394Z,7.27
2019-03-08T05:12:21.463Z,6.77
2019-03-08T05:14:50.537Z,7.63
2019-03-08T05:17:19.602Z,12.00
2019-03-08T05:19:48.671Z,15.43
2019-03-08T05:22:17.759Z,14.07
2019-03-08T05:24:46.825Z,11.97
2019-03-08T05:27:15.921Z,11.33
2019-03-08T05:29:45.013Z,10.50
2019-03-08T05:32:14.091Z,9.23
2019-03-08T05:34:43.167Z,11.70
2019-03-08T05:37:12.284Z,6.67
2019-03-08T05:39:41.367Z,7.23
2019-03-08T05:42:10.475Z,11.47
2019-03-08T05:44:39.751Z,10.40
2019-03-08T05:47:08.759Z,5.80
2019-03-08T05:49:37.817Z,9.00
2019-03-08T05:52:06.901Z,9.37
2019-03-08T05:54:35.987Z,8.17
2019-03-08T05:57:05.092Z,8.57
2019-03-08T05:59:34.401Z,9.03
2019-03-08T06:02:03.505Z,7.37
2019-03-08T06:04:32.563Z,9.67
2019-03-08T06:07:01.686Z,6.30
2019-03-08T06:09:30.755Z,7.13
2019-03-08T06:11:59.854Z,8.47
2019-03-08T06:14:29.191Z,6.97
2019-03-08T06:16:58.286Z,4.93
2019-03-08T06:19:27.362Z,8.77
2019-03-08T06:21:56.526Z,5.90
2019-03-08T06:24:25.582Z,8.27
2019-03-08T06:26:54.692Z,8.20
2019-03-08T06:29:24.029Z,4.83
2019-03-08T06:31:53.123Z,7.47
2019-03-08T06:34:22.186Z,7.97
2019-03-08T06:36:51.279Z,8.83
2019-03-08T06:39:20.374Z,7.97
2019-03-08T06:41:49.503Z,5.70
2019-03-08T06:44:18.843Z,10.03
2019-03-08T06:46:47.875Z,7.10
2019-03-08T06:49:16.999Z,5.53
2019-03-08T06:51:46.163Z,7.77
2019-03-08T06:54:15.299Z,11.27
2019-03-08T06:56:44.379Z,8.13
2019-03-08T06:59:25.711Z,6.67
2019-03-08T07:01:55.639Z,9.43
2019-03-08T07:04:25.610Z,7.47
2019-03-08T07:06:55.494Z,8.93
2019-03-08T07:09:24.645Z,7.50
2019-03-08T07:11:53.896Z,8.57
2019-03-08T07:14:22.984Z,10.43
2019-03-08T07:16:52.055Z,7.47
2019-03-08T07:19:21.148Z,7.17
2019-03-08T07:21:58.163Z,5.33
2019-03-08T07:24:36.269Z,8.97
2019-03-08T07:27:19.303Z,7.97
2019-03-08T07:30:09.527Z,4.87
2019-03-08T07:33:06.350Z,4.90
2019-03-08T07:35:52.838Z,6.30
2019-03-08T07:38:36.347Z,10.43
2019-03-08T07:41:39.422Z,7.30
2019-03-08T07:44:26.139Z,6.60
2019-03-08T07:47:11.400Z,7.50
2019-03-08T07:49:55.493Z,6.07
2019-03-08T07:52:46.405Z,7.40
2019-03-08T07:55:52.476Z,8.80
2019-03-08T07:58:43.735Z,8.33
2019-03-08T08:01:17.917Z,7.03
2019-03-08T08:04:06.157Z,6.77
2019-03-08T08:06:46.283Z,17.73
2019-03-08T08:09:46.383Z,16.43
2019-03-08T08:12:25.845Z,14.00
2019-03-08T08:15:18.777Z,16.90
2019-03-08T08:18:12.797Z,19.90
2019-03-08T08:21:03.700Z,9.73
2019-03-08T08:23:51.857Z,8.37
2019-03-08T08:26:38.393Z,7.67
2019-03-08T08:29:35.276Z,5.07
2019-03-08T08:32:34.572Z,6.77
2019-03-08T08:35:29.036Z,8.50
2019-03-08T08:38:22.084Z,14.97
2019-03-08T08:41:09.326Z,9.43
2019-03-08T08:44:03.565Z,6.97
2019-03-08T08:46:44.522Z,9.30
2019-03-08T08:49:29.650Z,12.67
2019-03-08T08:52:24.380Z,16.47
2019-03-08T08:55:12.535Z,14.67
2019-03-08T08:58:00.660Z,8.00
2019-03-08T09:00:54.930Z,7.03
2019-03-08T09:03:34.206Z,12.70
2019-03-08T09:06:21.314Z,12.33
2019-03-08T09:09:18.570Z,13.87
2019-03-08T09:11:55.230Z,10.10
2019-03-08T09:14:55.694Z,10.57
2019-03-08T09:17:33.866Z,9.60
2019-03-08T09:20:30.832Z,17.00
2019-03-08T09:23:31.034Z,9.93
2019-03-08T09:26:17.849Z,14.63
2019-03-08T09:28:55.368Z,7.93
2019-03-08T09:31:46.396Z,6.83
2019-03-08T09:34:43.888Z,10.13
2019-03-08T09:37:42.747Z,8.70
2019-03-08T09:40:30.050Z,7.77
2019-03-08T09:43:15.369Z,6.83
2019-03-08T09:46:03.046Z,7.27
2019-03-08T09:48:49.841Z,8.33
2019-03-08T09:51:41.014Z,7.20
2019-03-08T09:54:15.303Z,10.23
2019-03-08T09:57:03.497Z,7.83
2019-03-08T09:59:53.802Z,8.83
2019-03-08T10:02:30.042Z,8.60
2019-03-08T10:05:08.077Z,7.63
2019-03-08T10:07:50.173Z,8.00
2019-03-08T10:10:36.085Z,6.63
2019-03-08T10:13:30.059Z,6.57
2019-03-08T10:16:07.002Z,9.90
2019-03-08T10:18:55.120Z,7.30
2019-03-08T10:21:43.268Z,10.70
2019-03-08T10:24:27.329Z,9.77
2019-03-08T10:27:04.718Z,8.57
2019-03-08T10:29:50.139Z,10.27
2019-03-08T10:32:37.631Z,8.37
2019-03-08T10:35:25.585Z,6.43
2019-03-08T10:38:03.471Z,11.40
2019-03-08T10:40:42.014Z,12.13
2019-03-08T10:43:29.007Z,7.67
2019-03-08T10:46:16.074Z,8.60
2019-03-08T10:49:13.492Z,8.30
2019-03-08T10:52:00.487Z,8.07
2019-03-08T10:54:47.595Z,10.30
2019-03-08T10:57:48.006Z,8.10
2019-03-08T11:00:35.294Z,7.70
2019-03-08T11:03:13.963Z,9.10
2019-03-08T11:05:49.048Z,6.53
2019-03-08T11:08:37.193Z,6.53
2019-03-08T11:11:28.586Z,6.73
2019-03-08T11:14:25.772Z,9.73
2019-03-08T11:17:16.965Z,8.07
2019-03-08T11:20:07.986Z,8.17
2019-03-08T11:22:52.312Z,9.33
2019-03-08T11:25:40.534Z,8.97
2019-03-08T11:28:23.234Z,10.27
2019-03-08T11:31:04.838Z,7.73
2019-03-08T11:34:02.312Z,9.27
2019-03-08T11:36:41.795Z,7.43
2019-03-08T11:39:35.624Z,8.07
2019-03-08T11:42:15.902Z,9.10
2019-03-08T11:45:00.315Z,6.53
2019-03-08T11:47:48.482Z,10.00
2019-03-08T11:50:36.932Z,11.53
2019-03-08T11:53:37.192Z,11.63
2019-03-08T11:56:28.410Z,11.67
2019-03-08T11:59:16.578Z,9.97
2019-03-08T12:02:05.707Z,10.77
2019-03-08T12:04:53.976Z,7.43
2019-03-08T12:07:47.247Z,8.83
2019-03-08T12:10:30.359Z,7.10
2019-03-08T12:13:11.974Z,10.17
2019-03-08T12:15:58.916Z,8.40
2019-03-08T12:18:40.279Z,7.07
2019-03-08T12:21:22.734Z,8.23
2019-03-08T12:24:29.233Z,5.40
2019-03-08T12:27:04.874Z,7.60
2019-03-08T12:29:53.232Z,6.77
2019-03-08T12:32:44.330Z,7.03
2019-03-08T12:35:33.838Z,5.87
2019-03-08T12:38:27.457Z,9.17
2019-03-08T12:41:06.045Z,9.83
2019-03-08T12:43:52.928Z,8.20
2019-03-08T12:46:59.547Z,6.73
2019-03-08T12:49:50.322Z,8.13
2019-03-08T12:52:32.798Z,12.83
2019-03-08T12:55:11.219Z,7.10
2019-03-08T12:57:59.423Z,10.37
2019-03-08T13:00:40.911Z,9.73
2019-03-08T13:03:37.969Z,8.43
2019-03-08T13:06:12.414Z,9.30
2019-03-08T13:09:00.718Z,8.97
2019-03-08T13:11:33.263Z,8.37
2019-03-08T13:14:00.757Z,9.10
2019-03-08T13:16:29.848Z,7.90
2019-03-08T13:18:58.941Z,10.17
2019-03-08T13:21:28.129Z,4.60
2019-03-08T13:23:57.265Z,10.13
2019-03-08T13:26:26.646Z,8.47
2019-03-08T13:28:55.761Z,2.57
2019-03-08T13:31:24.847Z,3.90
2019-03-08T13:33:53.962Z,3.83
2019-03-08T13:36:23.536Z,3.67
2019-03-08T13:38:52.703Z,10.43
2019-03-08T13:41:21.867Z,5.23
2019-03-08T13:43:51.009Z,3.33
2019-03-08T13:46:20.097Z,5.27
2019-03-08T13:48:49.220Z,5.70
2019-03-08T13:51:18.321Z,2.80
2019-03-08T13:53:47.452Z,4.77
2019-03-08T13:56:16.660Z,7.23
2019-03-08T13:58:45.822Z,6.97
2019-03-08T14:01:14.918Z,7.60
2019-03-08T14:03:44.074Z,7.20
2019-03-08T14:06:13.184Z,7.20
2019-03-08T14:08:42.424Z,6.37
2019-03-08T14:11:11.602Z,6.63
2019-03-08T14:13:40.774Z,13.37
2019-03-08T14:16:09.952Z,5.67
2019-03-08T14:18:39.192Z,5.67
2019-03-08T14:21:08.390Z,6.73
2019-03-08T14:23:37.922Z,4.13
2019-03-08T14:26:07.046Z,7.20
2019-03-08T14:28:36.116Z,4.53
2019-03-08T14:31:19.280Z,7.23
2019-03-08T14:33:48.394Z,4.60
2019-03-08T14:36:17.491Z,4.60
2019-03-08T14:38:46.597Z,6.40
2019-03-08T14:41:21.791Z,5.70
2019-03-08T14:43:56.191Z,4.83
2019-03-08T14:46:30.876Z,4.47
2019-03-08T14:49:00.002Z,2.60
2019-03-08T14:51:29.140Z,5.43
2019-03-08T14:53:58.249Z,4.50
2019-03-08T14:56:27.372Z,4.03
2019-03-08T14:58:56.746Z,2.53
2019-03-08T15:01:25.973Z,3.17
2019-03-08T15:03:56.593Z,4.70
2019-03-08T15:06:27.964Z,2.97
2019-03-08T15:08:56.785Z,3.83
2019-03-08T15:11:26.085Z,2.00
2019-03-08T15:13:57.999Z,3.03
2019-03-08T15:16:26.049Z,3.43
2019-03-08T15:18:55.150Z,3.93
2019-03-08T15:21:24.519Z,4.43
2019-03-08T15:23:54.531Z,2.87
2019-03-08T15:26:24.521Z,5.10
2019-03-08T15:28:53.606Z,3.03
2019-03-08T15:31:22.726Z,4.43
2019-03-08T15:33:51.772Z,6.23
2019-03-08T15:36:20.909Z,3.90
2019-03-08T15:38:58.224Z,2.73
2019-03-08T15:41:21.495Z,4.73
2019-03-08T15:43:52.697Z,3.07
2019-03-08T15:46:22.488Z,3.87
2019-03-08T15:48:53.280Z,6.23
2019-03-08T15:51:25.184Z,2.70
2019-03-08T15:53:54.467Z,1.97
2019-03-08T15:56:23.802Z,2.70
2019-03-08T15:58:52.893Z,5.60
2019-03-08T16:01:22.341Z,5.03
2019-03-08T16:03:51.452Z,3.33
2019-03-08T16:06:20.657Z,4.83
2019-03-08T16:08:49.744Z,3.80
2019-03-08T16:11:18.874Z,3.77
2019-03-08T16:13:47.972Z,4.73
2019-03-08T16:16:17.074Z,6.23
2019-03-08T16:18:48.134Z,5.93
2019-03-08T16:21:17.064Z,3.87
2019-03-08T16:23:46.154Z,4.70
2019-03-08T16:26:15.261Z,3.07
2019-03-08T16:28:44.226Z,6.03
2019-03-08T16:31:30.787Z,3.90
2019-03-08T16:34:00.204Z,3.63
2019-03-08T16:36:36.688Z,10.17
2019-03-08T16:39:20.624Z,6.57
2019-03-08T16:42:08.896Z,9.10
2019-03-08T16:45:08.668Z,5.57
2019-03-08T16:47:59.487Z,6.33
2019-03-08T16:50:35.566Z,6.37
2019-03-08T16:53:29.666Z,9.20
2019-03-08T16:56:16.268Z,7.70
2019-03-08T16:59:10.310Z,7.13
2019-03-08T17:01:54.327Z,6.97
2019-03-08T17:04:45.520Z,7.73
2019-03-08T17:07:48.582Z,15.33
2019-03-08T17:10:34.053Z,4.70
2019-03-08T17:13:25.163Z,22.80
2019-03-08T17:16:20.654Z,22.30
2019-03-08T17:19:15.272Z,21.63
2019-03-08T17:21:49.431Z,15.17
2019-03-08T17:24:43.325Z,9.43
2019-03-08T17:27:18.556Z,9.03
2019-03-08T17:30:10.644Z,10.50
2019-03-08T17:32:57.497Z,15.93
2019-03-08T17:35:45.627Z,16.43
2019-03-08T17:38:19.877Z,21.43
2019-03-08T17:40:59.347Z,17.50
2019-03-08T17:43:43.823Z,12.50
2019-03-08T17:46:30.953Z,16.87
2019-03-08T17:49:20.153Z,12.40
2019-03-08T17:52:07.965Z,14.30
2019-03-08T17:54:52.593Z,16.10
2019-03-08T17:57:35.113Z,10.30
2019-03-08T18:00:19.356Z,12.93
2019-03-08T18:03:06.050Z,12.63
2019-03-08T18:06:12.373Z,12.83
2019-03-08T18:08:58.007Z,9.43
2019-03-08T18:11:45.069Z,10.57
2019-03-08T18:14:31.945Z,11.40
2019-03-08T18:17:07.217Z,7.93
2019-03-08T18:19:42.147Z,8.17
2019-03-08T18:22:15.572Z,8.67
2019-03-08T18:24:59.212Z,9.90
2019-03-08T18:27:45.826Z,9.87
2019-03-08T18:30:34.109Z,9.00
2019-03-08T18:33:13.181Z,10.50
2019-03-08T18:36:08.072Z,11.27
2019-03-08T18:38:54.776Z,10.10
2019-03-08T18:41:48.987Z,9.57
2019-03-08T18:44:42.994Z,5.67
2019-03-08T18:47:37.252Z,4.73
2019-03-08T18:50:24.818Z,10.17
2019-03-08T18:53:31.166Z,13.30
2019-03-08T18:56:37.473Z,7.30
2019-03-08T18:59:23.905Z,4.47
2019-03-08T19:02:03.840Z,3.70
2019-03-08T19:05:00.948Z,5.57
2019-03-08T19:07:41.218Z,4.57
2019-03-08T19:10:17.136Z,4.97
2019-03-08T19:13:11.073Z,3.73
2019-03-08T19:15:50.266Z,4.07
2019-03-08T19:18:38.275Z,3.60
2019-03-08T19:21:32.241Z,6.33
2019-03-08T19:24:23.881Z,5.47
2019-03-08T19:27:12.028Z,6.80
2019-03-08T19:29:59.146Z,4.77
2019-03-08T19:32:50.347Z,6.83
2019-03-08T19:35:27.592Z,3.87
2019-03-08T19:38:07.358Z,5.17
2019-03-08T19:40:43.785Z,4.87
2019-03-08T19:43:38.023Z,3.60
2019-03-08T19:46:37.062Z,2.87
2019-03-08T19:49:23.985Z,6.60
2019-03-08T19:52:15.202Z,4.47
2019-03-08T19:55:12.441Z,5.63
2019-03-08T19:58:03.058Z,4.60
2019-03-08T20:01:03.347Z,7.00
2019-03-08T20:03:50.300Z,7.90
2019-03-08T20:06:38.495Z,8.17
2019-03-08T20:09:27.359Z,8.73
2019-03-08T20:12:14.337Z,9.57
2019-03-08T20:14:52.113Z,4.90
2019-03-08T20:17:38.989Z,5.37
2019-03-08T20:20:31.063Z,6.60
2019-03-08T20:23:15.979Z,6.93
2019-03-08T20:26:07.235Z,5.93
2019-03-08T20:28:47.611Z,5.97
2019-03-08T20:31:37.668Z,6.00
2019-03-08T20:34:44.133Z,6.20
2019-03-08T20:37:27.147Z,4.50
2019-03-08T20:40:21.693Z,7.40
2019-03-08T20:42:57.957Z,7.60
2019-03-08T20:45:37.650Z,5.70
2019-03-08T20:48:06.759Z,5.13
2019-03-08T20:50:35.815Z,7.73
2019-03-08T20:53:05.224Z,7.90
2019-03-08T20:55:34.420Z,4.47
2019-03-08T20:58:03.508Z,5.47
2019-03-08T21:00:32.705Z,4.87
2019-03-08T21:03:01.868Z,4.50
2019-03-08T21:05:31.099Z,5.67
2019-03-08T21:08:00.175Z,9.40
2019-03-08T21:10:29.575Z,4.37
2019-03-08T21:12:58.650Z,8.37
2019-03-08T21:15:27.730Z,5.73
2019-03-08T21:17:56.821Z,3.80
2019-03-08T21:20:25.896Z,6.17
2019-03-08T21:22:55.022Z,4.47
2019-03-08T21:25:24.133Z,5.80
2019-03-08T21:27:53.193Z,5.77
2019-03-08T21:30:22.302Z,4.30
2019-03-08T21:32:51.464Z,3.90
2019-03-08T21:35:20.566Z,4.40
2019-03-08T21:37:49.649Z,3.80
2019-03-08T21:40:19.303Z,3.20
2019-03-08T21:42:48.440Z,3.37
2019-03-08T21:45:17.543Z,4.30
2019-03-08T21:47:46.686Z,5.73
2019-03-08T21:50:16.107Z,4.77
2019-03-08T21:52:45.229Z,6.53
2019-03-08T21:55:14.529Z,5.73
2019-03-08T21:57:43.606Z,3.83
2019-03-08T22:00:15.335Z,5.67
2019-03-08T22:02:44.731Z,3.27
2019-03-08T22:05:14.823Z,4.77
2019-03-08T22:07:43.939Z,3.00
2019-03-08T22:10:32.186Z,5.83
2019-03-08T22:13:01.291Z,6.50
2019-03-08T22:15:30.489Z,3.60
2019-03-08T22:17:59.714Z,4.73
2019-03-08T22:20:28.810Z,3.30
2019-03-08T22:22:57.933Z,3.83
2019-03-08T22:25:27.031Z,6.10
2019-03-08T22:27:56.121Z,3.77
2019-03-08T22:30:25.232Z,4.40
2019-03-08T22:32:54.303Z,5.17
2019-03-08T22:35:23.521Z,5.27
2019-03-08T22:37:52.860Z,4.10
2019-03-08T22:40:21.961Z,5.17
2019-03-08T22:42:51.076Z,4.30
2019-03-08T22:45:20.236Z,3.20
2019-03-08T22:47:49.344Z,3.20
2019-03-08T22:50:18.557Z,6.53
2019-03-08T22:52:47.719Z,4.73
2019-03-08T22:55:16.802Z,5.37
2019-03-08T22:57:45.937Z,5.13
2019-03-08T23:00:53.710Z,5.20
2019-03-08T23:03:22.996Z,5.67
2019-03-08T23:05:52.130Z,5.97
2019-03-08T23:08:21.243Z,4.50
2019-03-08T23:10:50.397Z,7.27
2019-03-08T23:13:19.740Z,5.17
2019-03-08T23:15:48.927Z,6.60
2019-03-08T23:18:17.984Z,7.17
2019-03-08T23:20:47.121Z,6.93
2019-03-08T23:23:16.561Z,7.20
2019-03-08T23:25:45.661Z,7.63
2019-03-08T23:28:46.006Z,7.40
2019-03-08T23:31:23.168Z,10.97
2019-03-08T23:33:52.276Z,11.90
2019-03-08T23:36:21.367Z,7.13
2019-03-08T23:38:50.485Z,6.57
2019-03-08T23:41:19.941Z,6.73
2019-03-08T23:43:49.033Z,3.83
2019-03-08T23:46:18.143Z,7.07
2019-03-08T23:48:47.272Z,4.87
2019-03-08T23:51:16.364Z,4.83
2019-03-08T23:53:45.428Z,3.87
2019-03-08T23:56:14.503Z,5.13
2019-03-08T23:58:43.600Z,2.93
